sensor_id;sensor_type;location;lat;lon;timestamp;pressure;altitude;pressure_sealevel;temperature;humidity
44001;BME280;29660;42.892;24.710;2023-01-01T00:01:21;98166.56;;;0.67;100.00
44001;BME280;29660;42.892;24.710;2023-01-01T00:06:24;98423.19;;;2.26;100.00
44001;BME280;29660;42.892;24.710;2023-01-01T00:11:26;98397.41;;;2.01;100.00
44001;BME280;29660;42.892;24.710;2023-01-01T00:16:28;98146.81;;;0.37;100.00
44001;BME280;29660;42.892;24.710;2023-01-01T00:21:30;98291.09;;;1.28;100.00
44001;BME280;29660;42.892;24.710;2023-01-01T00:26:32;98223.63;;;0.87;100.00
44001;BME280;29660;42.892;24.710;2023-01-01T00:31:36;98206.94;;;0.66;100.00
44001;BME280;29660;42.892;24.710;2023-01-01T00:36:38;98384.69;;;1.63;100.00
44001;BME280;29660;42.892;24.710;2023-01-01T00:41:40;98180.91;;;0.37;100.00
44001;BME280;29660;42.892;24.710;2023-01-01T00:46:42;98443.75;;;2.02;100.00
44001;BME280;29660;42.892;24.710;2023-01-01T00:51:44;98197.69;;;0.42;100.00
44001;BME280;29660;42.892;24.710;2023-01-01T00:56:46;98179.69;;;0.33;100.00
44001;BME280;29660;42.892;24.710;2023-01-01T01:01:47;98199.13;;;0.45;100.00
44001;BME280;29660;42.892;24.710;2023-01-01T01:06:49;98147.13;;;0.20;100.00
44001;BME280;29660;42.892;24.710;2023-01-01T01:11:51;98411.53;;;1.93;100.00
44001;BME280;29660;42.892;24.710;2023-01-01T01:17:13;98367.72;;;1.66;100.00
44001;BME280;29660;42.892;24.710;2023-01-01T01:22:15;98382.69;;;1.72;100.00
44001;BME280;29660;42.892;24.710;2023-01-01T01:27:17;98362.88;;;1.69;100.00
44001;BME280;29660;42.892;24.710;2023-01-01T01:32:20;98192.72;;;0.54;100.00
44001;BME280;29660;42.892;24.710;2023-01-01T01:37:22;98148.78;;;0.28;100.00
44001;BME280;29660;42.892;24.710;2023-01-01T01:42:24;98423.28;;;1.98;100.00
44001;BME280;29660;42.892;24.710;2023-01-01T01:47:34;98419.66;;;1.99;100.00
44001;BME280;29660;42.892;24.710;2023-01-01T01:52:40;98370.94;;;1.68;100.00
44001;BME280;29660;42.892;24.710;2023-01-01T01:57:42;98215.75;;;0.59;100.00
44001;BME280;29660;42.892;24.710;2023-01-01T02:02:51;98327.69;;;1.29;100.00
44001;BME280;29660;42.892;24.710;2023-01-01T02:07:54;98434.97;;;1.88;100.00
44001;BME280;29660;42.892;24.710;2023-01-01T02:12:57;98210.81;;;0.42;100.00
44001;BME280;29660;42.892;24.710;2023-01-01T02:18:08;98369.63;;;1.44;100.00
44001;BME280;29660;42.892;24.710;2023-01-01T02:28:56;98420.78;;;1.83;100.00
44001;BME280;29660;42.892;24.710;2023-01-01T02:34:04;98120.28;;;-0.10;100.00
44001;BME280;29660;42.892;24.710;2023-01-01T02:39:08;98369.84;;;1.49;100.00
44001;BME280;29660;42.892;24.710;2023-01-01T02:44:11;98153.31;;;0.13;100.00
44001;BME280;29660;42.892;24.710;2023-01-01T02:49:14;98426.69;;;1.85;100.00
44001;BME280;29660;42.892;24.710;2023-01-01T03:00:02;98435.94;;;1.81;100.00
44001;BME280;29660;42.892;24.710;2023-01-01T03:10:43;98420.34;;;1.72;100.00
44001;BME280;29660;42.892;24.710;2023-01-01T03:16:11;98427.63;;;1.70;100.00
44001;BME280;29660;42.892;24.710;2023-01-01T03:21:18;98340.56;;;1.17;100.00
44001;BME280;29660;42.892;24.710;2023-01-01T03:26:24;98412.38;;;1.59;100.00
44001;BME280;29660;42.892;24.710;2023-01-01T03:31:28;98401.66;;;1.54;100.00
44001;BME280;29660;42.892;24.710;2023-01-01T03:36:34;98166.66;;;-0.10;100.00
44001;BME280;29660;42.892;24.710;2023-01-01T03:41:48;98197.38;;;0.24;100.00
44001;BME280;29660;42.892;24.710;2023-01-01T03:46:53;98138.56;;;-0.16;100.00
44001;BME280;29660;42.892;24.710;2023-01-01T03:52:11;98423.91;;;1.58;100.00
44001;BME280;29660;42.892;24.710;2023-01-01T04:08:09;98195.03;;;0.08;100.00
44001;BME280;29660;42.892;24.710;2023-01-01T04:13:12;98400.31;;;1.37;100.00
44001;BME280;29660;42.892;24.710;2023-01-01T04:18:14;98141.09;;;-0.30;100.00
44001;BME280;29660;42.892;24.710;2023-01-01T04:23:16;98257.88;;;0.44;100.00
44001;BME280;29660;42.892;24.710;2023-01-01T04:28:18;98249.38;;;0.42;100.00
44001;BME280;29660;42.892;24.710;2023-01-01T04:33:21;97946.78;;;-1.54;100.00
44001;BME280;29660;42.892;24.710;2023-01-01T04:38:22;98186.63;;;-0.09;100.00
44001;BME280;29660;42.892;24.710;2023-01-01T04:43:24;98211.53;;;0.02;100.00
44001;BME280;29660;42.892;24.710;2023-01-01T04:48:28;98127.63;;;-0.48;100.00
44001;BME280;29660;42.892;24.710;2023-01-01T04:53:33;98292.47;;;0.54;100.00
44001;BME280;29660;42.892;24.710;2023-01-01T04:58:36;98343.59;;;0.86;100.00
44001;BME280;29660;42.892;24.710;2023-01-01T05:03:38;98181.16;;;-0.14;100.00
44001;BME280;29660;42.892;24.710;2023-01-01T05:08:42;98188.22;;;-0.15;100.00
44001;BME280;29660;42.892;24.710;2023-01-01T05:13:46;98455.34;;;1.38;100.00
44001;BME280;29660;42.892;24.710;2023-01-01T05:18:49;98171.66;;;-0.37;100.00
44001;BME280;29660;42.892;24.710;2023-01-01T05:23:55;98188.88;;;-0.28;100.00
44001;BME280;29660;42.892;24.710;2023-01-01T05:28:58;98162.19;;;-0.38;100.00
44001;BME280;29660;42.892;24.710;2023-01-01T05:34:02;98299.38;;;0.55;100.00
44001;BME280;29660;42.892;24.710;2023-01-01T05:39:06;98168.69;;;-0.34;100.00
44001;BME280;29660;42.892;24.710;2023-01-01T05:44:09;98182.66;;;-0.27;100.00
44001;BME280;29660;42.892;24.710;2023-01-01T05:49:12;98366.25;;;0.87;100.00
44001;BME280;29660;42.892;24.710;2023-01-01T05:54:14;98112.59;;;-0.61;100.00
44001;BME280;29660;42.892;24.710;2023-01-01T05:59:15;98432.72;;;1.44;100.00
44001;BME280;29660;42.892;24.710;2023-01-01T06:04:17;98207.91;;;0.03;100.00
44001;BME280;29660;42.892;24.710;2023-01-01T06:09:19;98423.44;;;1.48;100.00
44001;BME280;29660;42.892;24.710;2023-01-01T06:14:20;98414.53;;;1.49;100.00
44001;BME280;29660;42.892;24.710;2023-01-01T06:19:22;98343.16;;;1.11;100.00
44001;BME280;29660;42.892;24.710;2023-01-01T06:24:25;98414.97;;;1.53;100.00
44001;BME280;29660;42.892;24.710;2023-01-01T06:29:27;98159.28;;;0.00;100.00
44001;BME280;29660;42.892;24.710;2023-01-01T06:34:29;98168.03;;;0.14;100.00
44001;BME280;29660;42.892;24.710;2023-01-01T06:39:31;98131.56;;;-0.09;100.00
44001;BME280;29660;42.892;24.710;2023-01-01T06:44:33;98399.03;;;1.61;100.00
44001;BME280;29660;42.892;24.710;2023-01-01T06:49:35;98215.38;;;0.55;100.00
44001;BME280;29660;42.892;24.710;2023-01-01T06:54:37;98335.28;;;1.45;100.00
44001;BME280;29660;42.892;24.710;2023-01-01T06:59:39;98454.16;;;2.24;100.00
44001;BME280;29660;42.892;24.710;2023-01-01T07:04:41;98385.63;;;1.90;100.00
44001;BME280;29660;42.892;24.710;2023-01-01T07:09:44;98477.28;;;2.35;100.00
44001;BME280;29660;42.892;24.710;2023-01-01T07:14:45;98424.03;;;2.33;100.00
44001;BME280;29660;42.892;24.710;2023-01-01T07:19:48;98197.63;;;1.05;100.00
44001;BME280;29660;42.892;24.710;2023-01-01T07:24:50;98481.06;;;3.00;100.00
44001;BME280;29660;42.892;24.710;2023-01-01T07:29:53;98201.00;;;1.47;100.00
44001;BME280;29660;42.892;24.710;2023-01-01T07:34:55;98375.44;;;2.82;100.00
44001;BME280;29660;42.892;24.710;2023-01-01T07:39:57;98464.81;;;3.63;100.00
44001;BME280;29660;42.892;24.710;2023-01-01T07:44:59;98022.44;;;1.12;100.00
44001;BME280;29660;42.892;24.710;2023-01-01T07:50:01;98256.91;;;2.95;100.00
44001;BME280;29660;42.892;24.710;2023-01-01T07:55:03;98241.78;;;3.22;100.00
44001;BME280;29660;42.892;24.710;2023-01-01T08:00:06;98211.94;;;3.35;100.00
44001;BME280;29660;42.892;24.710;2023-01-01T08:05:13;98200.78;;;3.71;100.00
44001;BME280;29660;42.892;24.710;2023-01-01T08:10:16;98421.25;;;5.32;100.00
44001;BME280;29660;42.892;24.710;2023-01-01T08:15:18;98198.09;;;4.28;100.00
44001;BME280;29660;42.892;24.710;2023-01-01T08:20:20;98451.03;;;6.07;100.00
44001;BME280;29660;42.892;24.710;2023-01-01T08:25:22;98473.53;;;6.65;98.88
44001;BME280;29660;42.892;24.710;2023-01-01T08:30:24;98374.78;;;6.39;97.10
44001;BME280;29660;42.892;24.710;2023-01-01T08:35:26;98261.72;;;6.10;96.56
44001;BME280;29660;42.892;24.710;2023-01-01T08:40:28;98403.66;;;7.36;96.32
44001;BME280;29660;42.892;24.710;2023-01-01T08:45:30;98458.56;;;8.06;94.91
44001;BME280;29660;42.892;24.710;2023-01-01T08:50:32;98375.53;;;7.87;92.25
44001;BME280;29660;42.892;24.710;2023-01-01T08:55:34;98458.00;;;8.73;92.08
44001;BME280;29660;42.892;24.710;2023-01-01T09:00:36;98253.16;;;7.77;91.24
44001;BME280;29660;42.892;24.710;2023-01-01T09:05:38;98209.88;;;7.77;90.60
44001;BME280;29660;42.892;24.710;2023-01-01T09:10:41;98439.34;;;9.52;90.37
44001;BME280;29660;42.892;24.710;2023-01-01T09:15:47;98177.88;;;8.17;89.73
44001;BME280;29660;42.892;24.710;2023-01-01T09:20:49;98376.31;;;9.80;88.97
44001;BME280;29660;42.892;24.710;2023-01-01T09:25:51;98310.75;;;9.79;87.17
44001;BME280;29660;42.892;24.710;2023-01-01T09:30:53;98360.50;;;10.44;87.22
44001;BME280;29660;42.892;24.710;2023-01-01T09:36:32;98384.16;;;10.90;83.37
44001;BME280;29660;42.892;24.710;2023-01-01T09:46:53;98145.00;;;10.09;78.52
44001;BME280;29660;42.892;24.710;2023-01-01T09:51:59;98367.59;;;11.72;81.39
44001;BME280;29660;42.892;24.710;2023-01-01T09:57:07;98148.31;;;10.59;78.92
44001;BME280;29660;42.892;24.710;2023-01-01T10:02:38;98106.22;;;10.66;77.85
44001;BME280;29660;42.892;24.710;2023-01-01T10:08:13;98391.69;;;12.61;73.27
44001;BME280;29660;42.892;24.710;2023-01-01T10:18:41;98349.69;;;12.71;76.28
44001;BME280;29660;42.892;24.710;2023-01-01T10:23:48;98359.59;;;13.01;74.14
44001;BME280;29660;42.892;24.710;2023-01-01T10:28:59;98327.72;;;13.00;72.09
44001;BME280;29660;42.892;24.710;2023-01-01T10:34:14;98327.44;;;13.17;70.85
44001;BME280;29660;42.892;24.710;2023-01-01T10:39:17;98253.00;;;13.09;68.04
44001;BME280;29660;42.892;24.710;2023-01-01T10:44:28;98086.16;;;12.38;63.12
44001;BME280;29660;42.892;24.710;2023-01-01T10:49:31;98089.03;;;12.62;64.25
44001;BME280;29660;42.892;24.710;2023-01-01T10:54:36;98340.91;;;14.41;60.46
44001;BME280;29660;42.892;24.710;2023-01-01T10:59:41;98132.09;;;13.41;58.99
44001;BME280;29660;42.892;24.710;2023-01-01T11:04:48;98279.13;;;14.52;57.88
44001;BME280;29660;42.892;24.710;2023-01-01T11:09:51;98196.13;;;14.21;55.51
44001;BME280;29660;42.892;24.710;2023-01-01T11:15:04;98155.22;;;14.05;56.58
44001;BME280;29660;42.892;24.710;2023-01-01T11:20:17;98213.56;;;14.58;56.83
44001;BME280;29660;42.892;24.710;2023-01-01T11:25:28;98262.00;;;15.06;55.97
44001;BME280;29660;42.892;24.710;2023-01-01T11:30:30;98249.06;;;15.08;54.79
44001;BME280;29660;42.892;24.710;2023-01-01T11:35:52;98079.50;;;14.13;54.23
44001;BME280;29660;42.892;24.710;2023-01-01T11:41:01;98244.50;;;15.32;54.03
44001;BME280;29660;42.892;24.710;2023-01-01T11:46:09;98204.38;;;15.17;53.37
44001;BME280;29660;42.892;24.710;2023-01-01T11:51:28;98274.06;;;15.56;52.48
44001;BME280;29660;42.892;24.710;2023-01-01T11:56:30;98045.59;;;14.22;53.18
44001;BME280;29660;42.892;24.710;2023-01-01T12:01:43;98268.50;;;15.71;52.99
44001;BME280;29660;42.892;24.710;2023-01-01T12:06:51;98234.31;;;15.53;52.23
44001;BME280;29660;42.892;24.710;2023-01-01T12:22:28;98267.50;;;15.86;52.05
44001;BME280;29660;42.892;24.710;2023-01-01T12:27:54;98082.44;;;14.70;51.66
44001;BME280;29660;42.892;24.710;2023-01-01T13:00:02;98089.50;;;14.85;51.27
44001;BME280;29660;42.892;24.710;2023-01-01T13:05:14;98027.75;;;14.37;51.54
44001;BME280;29660;42.892;24.710;2023-01-01T13:10:25;98267.06;;;15.79;52.08
44001;BME280;29660;42.892;24.710;2023-01-01T13:20:43;98048.94;;;14.38;51.72
44001;BME280;29660;42.892;24.710;2023-01-01T13:25:46;98255.44;;;15.60;51.88
44001;BME280;29660;42.892;24.710;2023-01-01T13:30:48;98148.25;;;14.91;52.49
44001;BME280;29660;42.892;24.710;2023-01-01T14:02:53;98214.59;;;14.62;58.91
44001;BME280;29660;42.892;24.710;2023-01-01T14:07:59;98065.84;;;13.46;60.07
44001;BME280;29660;42.892;24.710;2023-01-01T14:18:13;98235.78;;;13.90;61.83
44001;BME280;29660;42.892;24.710;2023-01-01T14:23:25;98267.47;;;13.88;62.90
44001;BME280;29660;42.892;24.710;2023-01-01T14:28:32;98269.47;;;13.57;64.55
44001;BME280;29660;42.892;24.710;2023-01-01T14:33:35;98072.28;;;12.11;65.68
44001;BME280;29660;42.892;24.710;2023-01-01T14:38:42;98240.72;;;12.87;67.14
44001;BME280;29660;42.892;24.710;2023-01-01T14:43:47;98296.97;;;12.82;68.34
44001;BME280;29660;42.892;24.710;2023-01-01T14:48:53;98283.84;;;12.50;70.27
44001;BME280;29660;42.892;24.710;2023-01-01T14:54:01;98101.53;;;10.98;71.78
44001;BME280;29660;42.892;24.710;2023-01-01T14:59:25;98301.69;;;11.98;73.44
44001;BME280;29660;42.892;24.710;2023-01-01T15:04:29;98060.59;;;10.20;74.00
44001;BME280;29660;42.892;24.710;2023-01-01T15:09:31;98306.56;;;11.54;74.96
44001;BME280;29660;42.892;24.710;2023-01-01T15:14:38;98316.38;;;11.38;76.29
44001;BME280;29660;42.892;24.710;2023-01-01T15:19:42;98080.50;;;9.70;77.26
44001;BME280;29660;42.892;24.710;2023-01-01T15:24:45;98011.25;;;9.05;78.51
44001;BME280;29660;42.892;24.710;2023-01-01T15:29:46;98045.34;;;9.08;78.79
44001;BME280;29660;42.892;24.710;2023-01-01T15:34:50;98279.03;;;10.26;80.61
44001;BME280;29660;42.892;24.710;2023-01-01T15:39:58;98319.91;;;10.37;81.67
44001;BME280;29660;42.892;24.710;2023-01-01T15:45:30;98322.84;;;10.14;83.08
44001;BME280;29660;42.892;24.710;2023-01-01T15:50:35;98263.25;;;9.49;84.18
44001;BME280;29660;42.892;24.710;2023-01-01T15:55:44;98079.16;;;8.08;84.76
44001;BME280;29660;42.892;24.710;2023-01-01T16:00:56;98336.44;;;9.46;85.48
44001;BME280;29660;42.892;24.710;2023-01-01T16:06:00;98267.28;;;8.91;85.88
44001;BME280;29660;42.892;24.710;2023-01-01T16:11:02;98226.97;;;8.43;86.65
44001;BME280;29660;42.892;24.710;2023-01-01T16:16:21;98052.69;;;7.12;87.86
44001;BME280;29660;42.892;24.710;2023-01-01T16:21:26;98309.63;;;8.58;88.40
44001;BME280;29660;42.892;24.710;2023-01-01T16:26:47;98351.13;;;8.59;88.81
44001;BME280;29660;42.892;24.710;2023-01-01T16:31:49;98046.78;;;6.53;88.88
44001;BME280;29660;42.892;24.710;2023-01-01T16:36:51;98351.38;;;8.29;90.78
44001;BME280;29660;42.892;24.710;2023-01-01T16:41:55;98070.22;;;6.33;90.89
44001;BME280;29660;42.892;24.710;2023-01-01T16:46:57;98351.13;;;8.02;92.39
44001;BME280;29660;42.892;24.710;2023-01-01T16:51:59;98359.34;;;7.89;92.46
44001;BME280;29660;42.892;24.710;2023-01-01T16:57:01;98339.22;;;7.65;92.92
44001;BME280;29660;42.892;24.710;2023-01-01T17:02:04;98347.22;;;7.53;93.24
44001;BME280;29660;42.892;24.710;2023-01-01T17:07:06;98059.94;;;5.54;94.31
44001;BME280;29660;42.892;24.710;2023-01-01T17:12:08;98194.25;;;6.24;94.65
44001;BME280;29660;42.892;24.710;2023-01-01T17:17:10;98352.78;;;7.16;94.05
44001;BME280;29660;42.892;24.710;2023-01-01T17:22:12;98383.00;;;7.15;96.66
44001;BME280;29660;42.892;24.710;2023-01-01T17:27:14;98153.41;;;5.66;96.56
44001;BME280;29660;42.892;24.710;2023-01-01T17:32:16;98389.22;;;6.97;97.17
44001;BME280;29660;42.892;24.710;2023-01-01T17:37:17;98099.75;;;5.17;97.20
44001;BME280;29660;42.892;24.710;2023-01-01T17:42:19;98108.94;;;5.15;97.20
44001;BME280;29660;42.892;24.710;2023-01-01T17:47:22;98366.94;;;6.75;97.48
44001;BME280;29660;42.892;24.710;2023-01-01T17:52:29;98073.41;;;4.81;97.18
44001;BME280;29660;42.892;24.710;2023-01-01T17:57:31;98049.50;;;4.57;97.72
44001;BME280;29660;42.892;24.710;2023-01-01T18:02:33;98114.94;;;4.92;97.78
44001;BME280;29660;42.892;24.710;2023-01-01T18:07:39;98101.13;;;4.90;97.29
44001;BME280;29660;42.892;24.710;2023-01-01T18:12:41;98146.03;;;5.08;97.95
44001;BME280;29660;42.892;24.710;2023-01-01T18:17:43;98364.59;;;6.55;98.04
44001;BME280;29660;42.892;24.710;2023-01-01T18:22:45;98244.19;;;5.67;97.88
44001;BME280;29660;42.892;24.710;2023-01-01T18:27:47;98373.09;;;6.45;98.74
44001;BME280;29660;42.892;24.710;2023-01-01T18:32:54;98052.88;;;4.46;98.22
44001;BME280;29660;42.892;24.710;2023-01-01T18:37:56;98067.38;;;4.55;97.69
44001;BME280;29660;42.892;24.710;2023-01-01T18:43:10;98139.53;;;4.92;97.80
44001;BME280;29660;42.892;24.710;2023-01-01T18:48:19;98092.56;;;4.58;98.06
44001;BME280;29660;42.892;24.710;2023-01-01T18:53:22;98081.19;;;4.39;98.77
44001;BME280;29660;42.892;24.710;2023-01-01T18:58:25;98072.75;;;4.30;98.82
44001;BME280;29660;42.892;24.710;2023-01-01T19:03:28;98322.53;;;5.86;98.36
44001;BME280;29660;42.892;24.710;2023-01-01T19:08:33;98385.03;;;6.06;98.43
44001;BME280;29660;42.892;24.710;2023-01-01T19:13:37;98360.84;;;5.84;99.17
44001;BME280;29660;42.892;24.710;2023-01-01T19:18:44;98113.22;;;4.24;99.58
44001;BME280;29660;42.892;24.710;2023-01-01T19:23:55;98362.53;;;5.78;100.00
44001;BME280;29660;42.892;24.710;2023-01-01T19:34:04;98273.69;;;4.97;100.00
44001;BME280;29660;42.892;24.710;2023-01-01T19:39:06;98084.47;;;3.73;100.00
44001;BME280;29660;42.892;24.710;2023-01-01T19:44:09;98334.44;;;5.22;100.00
44001;BME280;29660;42.892;24.710;2023-01-01T19:49:12;98110.44;;;3.76;100.00
44001;BME280;29660;42.892;24.710;2023-01-01T19:54:16;98101.69;;;3.50;100.00
44001;BME280;29660;42.892;24.710;2023-01-01T19:59:18;98365.44;;;5.15;100.00
44001;BME280;29660;42.892;24.710;2023-01-01T20:04:20;98296.53;;;4.66;100.00
44001;BME280;29660;42.892;24.710;2023-01-01T20:09:23;98374.91;;;5.04;100.00
44001;BME280;29660;42.892;24.710;2023-01-01T20:14:25;98370.34;;;4.86;100.00
44001;BME280;29660;42.892;24.710;2023-01-01T20:19:27;98332.75;;;4.59;100.00
44001;BME280;29660;42.892;24.710;2023-01-01T20:24:29;98109.25;;;3.08;100.00
44001;BME280;29660;42.892;24.710;2023-01-01T20:29:31;98415.78;;;4.77;100.00
44001;BME280;29660;42.892;24.710;2023-01-01T20:34:32;98122.31;;;2.90;100.00
44001;BME280;29660;42.892;24.710;2023-01-01T20:39:34;98343.56;;;4.26;100.00
44001;BME280;29660;42.892;24.710;2023-01-01T20:44:37;98403.91;;;4.61;100.00
44001;BME280;29660;42.892;24.710;2023-01-01T20:49:40;98390.88;;;4.59;100.00
44001;BME280;29660;42.892;24.710;2023-01-01T20:54:42;98121.16;;;2.79;100.00
44001;BME280;29660;42.892;24.710;2023-01-01T20:59:44;98339.00;;;4.08;100.00
44001;BME280;29660;42.892;24.710;2023-01-01T21:04:46;98075.94;;;2.31;100.00
44001;BME280;29660;42.892;24.710;2023-01-01T21:09:48;98304.47;;;3.72;100.00
44001;BME280;29660;42.892;24.710;2023-01-01T21:14:54;98347.38;;;3.99;100.00
44001;BME280;29660;42.892;24.710;2023-01-01T21:19:57;98328.38;;;3.77;100.00
44001;BME280;29660;42.892;24.710;2023-01-01T21:25:12;98396.47;;;4.13;100.00
44001;BME280;29660;42.892;24.710;2023-01-01T21:30:38;98395.44;;;4.14;100.00
44001;BME280;29660;42.892;24.710;2023-01-01T21:35:43;98153.81;;;2.58;100.00
44001;BME280;29660;42.892;24.710;2023-01-01T21:40:49;98393.66;;;4.01;100.00
44001;BME280;29660;42.892;24.710;2023-01-01T21:45:54;98335.75;;;3.61;100.00
44001;BME280;29660;42.892;24.710;2023-01-01T21:50:58;98104.75;;;2.12;100.00
44001;BME280;29660;42.892;24.710;2023-01-01T22:01:26;98311.91;;;3.36;100.00
44001;BME280;29660;42.892;24.710;2023-01-01T22:06:36;98086.53;;;1.91;100.00
44001;BME280;29660;42.892;24.710;2023-01-01T22:11:39;98145.59;;;2.21;100.00
44001;BME280;29660;42.892;24.710;2023-01-01T22:16:41;98311.56;;;3.19;100.00
44001;BME280;29660;42.892;24.710;2023-01-01T22:21:45;98143.59;;;2.17;100.00
44001;BME280;29660;42.892;24.710;2023-01-01T22:26:47;98071.00;;;1.69;100.00
44001;BME280;29660;42.892;24.710;2023-01-01T22:32:01;98176.34;;;2.34;100.00
44001;BME280;29660;42.892;24.710;2023-01-01T22:37:12;98082.72;;;1.74;100.00
44001;BME280;29660;42.892;24.710;2023-01-01T22:42:18;98349.22;;;3.40;100.00
44001;BME280;29660;42.892;24.710;2023-01-01T22:47:25;98262.19;;;2.75;100.00
44001;BME280;29660;42.892;24.710;2023-01-01T22:52:31;98352.91;;;3.32;100.00
44001;BME280;29660;42.892;24.710;2023-01-01T22:57:33;98060.28;;;1.51;100.00
44001;BME280;29660;42.892;24.710;2023-01-01T23:02:35;98076.03;;;1.51;100.00
44001;BME280;29660;42.892;24.710;2023-01-01T23:07:38;98296.19;;;2.90;100.00
44001;BME280;29660;42.892;24.710;2023-01-01T23:12:43;98080.50;;;1.57;100.00
44001;BME280;29660;42.892;24.710;2023-01-01T23:17:45;98315.47;;;2.84;100.00
44001;BME280;29660;42.892;24.710;2023-01-01T23:22:49;98359.59;;;3.22;100.00
44001;BME280;29660;42.892;24.710;2023-01-01T23:27:53;98188.75;;;2.20;100.00
44001;BME280;29660;42.892;24.710;2023-01-01T23:32:56;98339.94;;;3.17;100.00
44001;BME280;29660;42.892;24.710;2023-01-01T23:37:58;98057.63;;;1.31;100.00
44001;BME280;29660;42.892;24.710;2023-01-01T23:43:01;98104.34;;;1.62;100.00
44001;BME280;29660;42.892;24.710;2023-01-01T23:48:03;98001.22;;;1.01;100.00
44001;BME280;29660;42.892;24.710;2023-01-01T23:53:08;98219.91;;;2.37;100.00
44001;BME280;29660;42.892;24.710;2023-01-01T23:58:10;98263.41;;;2.66;100.00
